sensor_id;sensor_type;location;lat;lon;timestamp;P1;durP1;ratioP1;P2;durP2;ratioP2
12271;SDS011;6198;51.446;6.698;2023-08-01T00:01:31;2.10;;;1.90;;
12271;SDS011;6198;51.446;6.698;2023-08-01T00:03:57;6.13;;;2.27;;
12271;SDS011;6198;51.446;6.698;2023-08-01T00:06:23;3.23;;;2.03;;
12271;SDS011;6198;51.446;6.698;2023-08-01T00:08:50;2.70;;;2.10;;
12271;SDS011;6198;51.446;6.698;2023-08-01T00:11:16;3.13;;;2.10;;
12271;SDS011;6198;51.446;6.698;2023-08-01T00:13:42;3.27;;;2.10;;
12271;SDS011;6198;51.446;6.698;2023-08-01T00:16:08;2.40;;;1.90;;
12271;SDS011;6198;51.446;6.698;2023-08-01T00:18:35;2.30;;;2.10;;
12271;SDS011;6198;51.446;6.698;2023-08-01T00:21:01;2.60;;;2.23;;
12271;SDS011;6198;51.446;6.698;2023-08-01T00:23:27;3.40;;;2.30;;
12271;SDS011;6198;51.446;6.698;2023-08-01T00:25:53;2.60;;;2.40;;
12271;SDS011;6198;51.446;6.698;2023-08-01T00:28:19;2.20;;;2.10;;
12271;SDS011;6198;51.446;6.698;2023-08-01T00:30:45;2.30;;;2.10;;
12271;SDS011;6198;51.446;6.698;2023-08-01T00:33:11;3.30;;;2.40;;
12271;SDS011;6198;51.446;6.698;2023-08-01T00:35:38;2.60;;;2.40;;
12271;SDS011;6198;51.446;6.698;2023-08-01T00:38:04;3.00;;;2.80;;
12271;SDS011;6198;51.446;6.698;2023-08-01T00:40:33;2.93;;;2.53;;
12271;SDS011;6198;51.446;6.698;2023-08-01T00:42:59;3.17;;;2.80;;
12271;SDS011;6198;51.446;6.698;2023-08-01T00:45:28;3.93;;;2.87;;
12271;SDS011;6198;51.446;6.698;2023-08-01T00:47:55;4.07;;;2.83;;
12271;SDS011;6198;51.446;6.698;2023-08-01T00:50:22;4.07;;;3.00;;
12271;SDS011;6198;51.446;6.698;2023-08-01T00:52:49;4.90;;;3.17;;
12271;SDS011;6198;51.446;6.698;2023-08-01T00:55:16;5.20;;;2.80;;
12271;SDS011;6198;51.446;6.698;2023-08-01T00:57:42;4.03;;;3.17;;
12271;SDS011;6198;51.446;6.698;2023-08-01T01:00:08;3.33;;;3.03;;
12271;SDS011;6198;51.446;6.698;2023-08-01T01:02:34;5.93;;;3.50;;
12271;SDS011;6198;51.446;6.698;2023-08-01T01:05:01;4.77;;;3.07;;
12271;SDS011;6198;51.446;6.698;2023-08-01T01:07:27;3.50;;;3.10;;
12271;SDS011;6198;51.446;6.698;2023-08-01T01:09:53;4.10;;;3.07;;
12271;SDS011;6198;51.446;6.698;2023-08-01T01:12:19;6.60;;;2.83;;
12271;SDS011;6198;51.446;6.698;2023-08-01T01:14:45;3.00;;;2.60;;
12271;SDS011;6198;51.446;6.698;2023-08-01T01:17:11;4.37;;;3.13;;
12271;SDS011;6198;51.446;6.698;2023-08-01T01:19:37;4.30;;;3.13;;
12271;SDS011;6198;51.446;6.698;2023-08-01T01:22:03;4.90;;;4.37;;
12271;SDS011;6198;51.446;6.698;2023-08-01T01:24:30;6.57;;;4.77;;
12271;SDS011;6198;51.446;6.698;2023-08-01T01:26:57;4.43;;;4.03;;
12271;SDS011;6198;51.446;6.698;2023-08-01T01:29:26;5.67;;;4.60;;
12271;SDS011;6198;51.446;6.698;2023-08-01T01:31:52;4.20;;;3.80;;
12271;SDS011;6198;51.446;6.698;2023-08-01T01:34:19;4.50;;;3.40;;
12271;SDS011;6198;51.446;6.698;2023-08-01T01:36:45;4.00;;;3.60;;
12271;SDS011;6198;51.446;6.698;2023-08-01T01:39:11;3.83;;;3.47;;
12271;SDS011;6198;51.446;6.698;2023-08-01T01:41:37;5.13;;;3.07;;
12271;SDS011;6198;51.446;6.698;2023-08-01T01:44:03;5.83;;;3.37;;
12271;SDS011;6198;51.446;6.698;2023-08-01T01:46:29;8.30;;;3.70;;
12271;SDS011;6198;51.446;6.698;2023-08-01T01:48:55;6.03;;;3.40;;
12271;SDS011;6198;51.446;6.698;2023-08-01T01:51:22;6.87;;;4.33;;
12271;SDS011;6198;51.446;6.698;2023-08-01T01:54:06;5.30;;;4.60;;
12271;SDS011;6198;51.446;6.698;2023-08-01T01:56:32;5.17;;;4.67;;
12271;SDS011;6198;51.446;6.698;2023-08-01T01:59:00;5.70;;;5.20;;
12271;SDS011;6198;51.446;6.698;2023-08-01T02:01:26;5.50;;;5.00;;
12271;SDS011;6198;51.446;6.698;2023-08-01T02:03:52;7.27;;;6.10;;
12271;SDS011;6198;51.446;6.698;2023-08-01T02:06:18;6.30;;;5.70;;
12271;SDS011;6198;51.446;6.698;2023-08-01T02:08:44;6.23;;;5.50;;
12271;SDS011;6198;51.446;6.698;2023-08-01T02:11:10;9.60;;;6.10;;
12271;SDS011;6198;51.446;6.698;2023-08-01T02:13:36;8.27;;;6.53;;
12271;SDS011;6198;51.446;6.698;2023-08-01T02:16:02;7.40;;;6.53;;
12271;SDS011;6198;51.446;6.698;2023-08-01T02:18:28;11.77;;;7.00;;
12271;SDS011;6198;51.446;6.698;2023-08-01T02:20:54;10.67;;;6.90;;
12271;SDS011;6198;51.446;6.698;2023-08-01T02:23:20;8.03;;;6.97;;
12271;SDS011;6198;51.446;6.698;2023-08-01T02:25:46;8.30;;;7.33;;
12271;SDS011;6198;51.446;6.698;2023-08-01T02:28:12;11.63;;;8.40;;
12271;SDS011;6198;51.446;6.698;2023-08-01T02:30:38;15.13;;;9.33;;
12271;SDS011;6198;51.446;6.698;2023-08-01T02:33:04;12.87;;;9.63;;
12271;SDS011;6198;51.446;6.698;2023-08-01T02:35:30;15.97;;;11.73;;
12271;SDS011;6198;51.446;6.698;2023-08-01T02:37:56;16.30;;;12.90;;
12271;SDS011;6198;51.446;6.698;2023-08-01T02:40:22;17.07;;;13.50;;
12271;SDS011;6198;51.446;6.698;2023-08-01T02:42:48;17.50;;;15.20;;
12271;SDS011;6198;51.446;6.698;2023-08-01T02:45:14;22.77;;;16.90;;
12271;SDS011;6198;51.446;6.698;2023-08-01T02:47:39;25.52;;;19.02;;
12271;SDS011;6198;51.446;6.698;2023-08-01T02:50:06;24.53;;;19.27;;
12271;SDS011;6198;51.446;6.698;2023-08-01T02:52:32;25.83;;;18.73;;
12271;SDS011;6198;51.446;6.698;2023-08-01T02:54:58;27.80;;;19.97;;
12271;SDS011;6198;51.446;6.698;2023-08-01T02:57:24;31.57;;;21.30;;
12271;SDS011;6198;51.446;6.698;2023-08-01T02:59:50;29.40;;;21.10;;
12271;SDS011;6198;51.446;6.698;2023-08-01T03:02:16;27.03;;;20.77;;
12271;SDS011;6198;51.446;6.698;2023-08-01T03:04:42;26.17;;;21.47;;
12271;SDS011;6198;51.446;6.698;2023-08-01T03:07:08;28.17;;;20.83;;
12271;SDS011;6198;51.446;6.698;2023-08-01T03:09:34;29.07;;;21.70;;
12271;SDS011;6198;51.446;6.698;2023-08-01T03:12:00;27.17;;;20.17;;
12271;SDS011;6198;51.446;6.698;2023-08-01T03:14:26;32.07;;;21.00;;
12271;SDS011;6198;51.446;6.698;2023-08-01T03:16:52;33.43;;;22.07;;
12271;SDS011;6198;51.446;6.698;2023-08-01T03:19:18;30.90;;;20.43;;
12271;SDS011;6198;51.446;6.698;2023-08-01T03:21:44;33.20;;;21.97;;
12271;SDS011;6198;51.446;6.698;2023-08-01T03:24:10;29.60;;;21.27;;
12271;SDS011;6198;51.446;6.698;2023-08-01T03:26:36;30.43;;;21.57;;
12271;SDS011;6198;51.446;6.698;2023-08-01T03:29:02;31.03;;;18.47;;
12271;SDS011;6198;51.446;6.698;2023-08-01T03:31:30;30.77;;;20.50;;
12271;SDS011;6198;51.446;6.698;2023-08-01T03:33:56;28.50;;;20.47;;
12271;SDS011;6198;51.446;6.698;2023-08-01T03:36:23;28.23;;;20.40;;
12271;SDS011;6198;51.446;6.698;2023-08-01T03:38:49;30.17;;;21.03;;
12271;SDS011;6198;51.446;6.698;2023-08-01T03:41:15;29.40;;;19.97;;
12271;SDS011;6198;51.446;6.698;2023-08-01T03:43:41;28.57;;;21.33;;
12271;SDS011;6198;51.446;6.698;2023-08-01T03:46:07;41.43;;;21.10;;
12271;SDS011;6198;51.446;6.698;2023-08-01T03:48:33;30.77;;;20.80;;
12271;SDS011;6198;51.446;6.698;2023-08-01T03:50:59;30.40;;;21.47;;
12271;SDS011;6198;51.446;6.698;2023-08-01T03:53:25;32.63;;;21.17;;
12271;SDS011;6198;51.446;6.698;2023-08-01T03:55:51;25.17;;;20.23;;
12271;SDS011;6198;51.446;6.698;2023-08-01T03:58:17;33.77;;;21.93;;
12271;SDS011;6198;51.446;6.698;2023-08-01T04:00:43;28.23;;;21.87;;
12271;SDS011;6198;51.446;6.698;2023-08-01T04:03:09;29.67;;;21.13;;
12271;SDS011;6198;51.446;6.698;2023-08-01T04:05:35;36.63;;;22.53;;
12271;SDS011;6198;51.446;6.698;2023-08-01T04:08:01;37.63;;;22.53;;
12271;SDS011;6198;51.446;6.698;2023-08-01T04:10:27;36.50;;;22.10;;
12271;SDS011;6198;51.446;6.698;2023-08-01T04:12:53;30.87;;;22.43;;
12271;SDS011;6198;51.446;6.698;2023-08-01T04:15:19;32.33;;;24.53;;
12271;SDS011;6198;51.446;6.698;2023-08-01T04:17:45;38.90;;;25.17;;
12271;SDS011;6198;51.446;6.698;2023-08-01T04:20:11;36.47;;;25.40;;
12271;SDS011;6198;51.446;6.698;2023-08-01T04:22:37;35.80;;;26.50;;
12271;SDS011;6198;51.446;6.698;2023-08-01T04:25:03;40.60;;;29.03;;
12271;SDS011;6198;51.446;6.698;2023-08-01T04:27:29;46.43;;;31.40;;
12271;SDS011;6198;51.446;6.698;2023-08-01T04:29:55;39.77;;;27.70;;
12271;SDS011;6198;51.446;6.698;2023-08-01T04:32:21;33.97;;;28.83;;
12271;SDS011;6198;51.446;6.698;2023-08-01T04:34:47;40.07;;;27.17;;
12271;SDS011;6198;51.446;6.698;2023-08-01T04:37:13;33.20;;;26.17;;
12271;SDS011;6198;51.446;6.698;2023-08-01T04:39:39;33.00;;;24.90;;
12271;SDS011;6198;51.446;6.698;2023-08-01T04:42:05;32.33;;;22.83;;
12271;SDS011;6198;51.446;6.698;2023-08-01T04:44:31;31.87;;;24.17;;
12271;SDS011;6198;51.446;6.698;2023-08-01T04:46:57;38.17;;;24.27;;
12271;SDS011;6198;51.446;6.698;2023-08-01T04:49:23;40.90;;;24.47;;
12271;SDS011;6198;51.446;6.698;2023-08-01T04:51:49;31.17;;;23.97;;
12271;SDS011;6198;51.446;6.698;2023-08-01T04:54:16;33.70;;;25.03;;
12271;SDS011;6198;51.446;6.698;2023-08-01T04:56:42;36.27;;;24.00;;
12271;SDS011;6198;51.446;6.698;2023-08-01T04:59:07;31.27;;;24.07;;
12271;SDS011;6198;51.446;6.698;2023-08-01T05:01:33;40.67;;;25.20;;
12271;SDS011;6198;51.446;6.698;2023-08-01T05:03:59;40.03;;;24.33;;
12271;SDS011;6198;51.446;6.698;2023-08-01T05:06:25;36.27;;;24.70;;
12271;SDS011;6198;51.446;6.698;2023-08-01T05:08:52;38.77;;;26.23;;
12271;SDS011;6198;51.446;6.698;2023-08-01T05:11:18;35.50;;;25.07;;
12271;SDS011;6198;51.446;6.698;2023-08-01T05:13:44;34.20;;;23.73;;
12271;SDS011;6198;51.446;6.698;2023-08-01T05:16:10;38.50;;;25.70;;
12271;SDS011;6198;51.446;6.698;2023-08-01T05:18:36;39.37;;;26.80;;
12271;SDS011;6198;51.446;6.698;2023-08-01T05:21:02;42.63;;;27.27;;
12271;SDS011;6198;51.446;6.698;2023-08-01T05:23:28;40.90;;;26.53;;
12271;SDS011;6198;51.446;6.698;2023-08-01T05:25:54;35.67;;;24.83;;
12271;SDS011;6198;51.446;6.698;2023-08-01T05:28:20;37.10;;;27.00;;
12271;SDS011;6198;51.446;6.698;2023-08-01T05:30:46;39.83;;;27.70;;
12271;SDS011;6198;51.446;6.698;2023-08-01T05:33:12;36.20;;;27.03;;
12271;SDS011;6198;51.446;6.698;2023-08-01T05:35:38;35.97;;;26.63;;
12271;SDS011;6198;51.446;6.698;2023-08-01T05:38:04;41.73;;;26.93;;
12271;SDS011;6198;51.446;6.698;2023-08-01T05:40:31;36.43;;;26.93;;
12271;SDS011;6198;51.446;6.698;2023-08-01T05:42:57;39.27;;;25.60;;
12271;SDS011;6198;51.446;6.698;2023-08-01T05:45:23;39.10;;;24.60;;
12271;SDS011;6198;51.446;6.698;2023-08-01T05:47:49;35.07;;;25.90;;
12271;SDS011;6198;51.446;6.698;2023-08-01T05:50:15;33.73;;;24.33;;
12271;SDS011;6198;51.446;6.698;2023-08-01T05:52:40;35.33;;;24.97;;
12271;SDS011;6198;51.446;6.698;2023-08-01T05:55:06;38.20;;;25.70;;
12271;SDS011;6198;51.446;6.698;2023-08-01T05:57:33;29.03;;;22.60;;
12271;SDS011;6198;51.446;6.698;2023-08-01T05:59:59;34.80;;;24.07;;
12271;SDS011;6198;51.446;6.698;2023-08-01T06:02:25;31.37;;;22.53;;
12271;SDS011;6198;51.446;6.698;2023-08-01T06:04:51;33.10;;;23.60;;
12271;SDS011;6198;51.446;6.698;2023-08-01T06:07:17;29.47;;;22.40;;
12271;SDS011;6198;51.446;6.698;2023-08-01T06:09:47;25.83;;;21.33;;
12271;SDS011;6198;51.446;6.698;2023-08-01T06:12:14;32.03;;;21.40;;
12271;SDS011;6198;51.446;6.698;2023-08-01T06:14:40;30.63;;;20.37;;
12271;SDS011;6198;51.446;6.698;2023-08-01T06:17:06;29.80;;;20.17;;
12271;SDS011;6198;51.446;6.698;2023-08-01T06:19:32;27.90;;;20.77;;
12271;SDS011;6198;51.446;6.698;2023-08-01T06:21:57;27.90;;;20.70;;
12271;SDS011;6198;51.446;6.698;2023-08-01T06:24:25;28.63;;;20.43;;
12271;SDS011;6198;51.446;6.698;2023-08-01T06:26:51;31.80;;;19.80;;
12271;SDS011;6198;51.446;6.698;2023-08-01T06:29:17;26.97;;;20.07;;
12271;SDS011;6198;51.446;6.698;2023-08-01T06:31:43;29.17;;;19.83;;
12271;SDS011;6198;51.446;6.698;2023-08-01T06:34:08;25.43;;;20.63;;
12271;SDS011;6198;51.446;6.698;2023-08-01T06:36:34;28.60;;;20.00;;
12271;SDS011;6198;51.446;6.698;2023-08-01T06:39:01;20.57;;;18.27;;
12271;SDS011;6198;51.446;6.698;2023-08-01T06:41:27;23.30;;;18.97;;
12271;SDS011;6198;51.446;6.698;2023-08-01T06:43:53;22.33;;;16.47;;
12271;SDS011;6198;51.446;6.698;2023-08-01T06:46:19;22.93;;;17.33;;
12271;SDS011;6198;51.446;6.698;2023-08-01T06:48:44;26.73;;;15.90;;
12271;SDS011;6198;51.446;6.698;2023-08-01T06:51:10;20.47;;;13.97;;
12271;SDS011;6198;51.446;6.698;2023-08-01T06:53:36;19.83;;;14.40;;
12271;SDS011;6198;51.446;6.698;2023-08-01T06:56:02;20.00;;;13.53;;
12271;SDS011;6198;51.446;6.698;2023-08-01T06:58:28;18.63;;;13.80;;
12271;SDS011;6198;51.446;6.698;2023-08-01T07:00:54;18.73;;;13.07;;
12271;SDS011;6198;51.446;6.698;2023-08-01T07:03:20;16.47;;;12.33;;
12271;SDS011;6198;51.446;6.698;2023-08-01T07:05:46;20.37;;;13.27;;
12271;SDS011;6198;51.446;6.698;2023-08-01T07:08:12;22.07;;;13.50;;
12271;SDS011;6198;51.446;6.698;2023-08-01T07:10:38;18.63;;;12.40;;
12271;SDS011;6198;51.446;6.698;2023-08-01T07:13:04;18.77;;;12.13;;
12271;SDS011;6198;51.446;6.698;2023-08-01T07:15:30;16.73;;;11.67;;
12271;SDS011;6198;51.446;6.698;2023-08-01T07:17:56;19.93;;;12.07;;
12271;SDS011;6198;51.446;6.698;2023-08-01T07:20:22;16.80;;;11.67;;
12271;SDS011;6198;51.446;6.698;2023-08-01T07:22:48;15.33;;;11.20;;
12271;SDS011;6198;51.446;6.698;2023-08-01T07:25:14;19.13;;;12.60;;
12271;SDS011;6198;51.446;6.698;2023-08-01T07:27:41;18.73;;;11.80;;
12271;SDS011;6198;51.446;6.698;2023-08-01T07:30:07;18.53;;;10.97;;
12271;SDS011;6198;51.446;6.698;2023-08-01T07:32:35;18.10;;;11.93;;
12271;SDS011;6198;51.446;6.698;2023-08-01T07:35:02;19.03;;;11.50;;
12271;SDS011;6198;51.446;6.698;2023-08-01T07:37:28;18.20;;;11.70;;
12271;SDS011;6198;51.446;6.698;2023-08-01T07:39:55;17.03;;;11.50;;
12271;SDS011;6198;51.446;6.698;2023-08-01T07:42:21;16.70;;;10.20;;
12271;SDS011;6198;51.446;6.698;2023-08-01T07:44:48;17.87;;;11.07;;
12271;SDS011;6198;51.446;6.698;2023-08-01T07:47:15;17.93;;;11.60;;
12271;SDS011;6198;51.446;6.698;2023-08-01T07:49:41;18.80;;;11.50;;
12271;SDS011;6198;51.446;6.698;2023-08-01T07:52:07;15.20;;;11.67;;
12271;SDS011;6198;51.446;6.698;2023-08-01T07:54:33;17.53;;;11.00;;
12271;SDS011;6198;51.446;6.698;2023-08-01T07:56:59;17.30;;;10.63;;
12271;SDS011;6198;51.446;6.698;2023-08-01T07:59:25;18.67;;;10.40;;
12271;SDS011;6198;51.446;6.698;2023-08-01T08:01:50;19.27;;;10.50;;
12271;SDS011;6198;51.446;6.698;2023-08-01T08:04:17;13.60;;;10.43;;
12271;SDS011;6198;51.446;6.698;2023-08-01T08:06:44;14.80;;;10.30;;
12271;SDS011;6198;51.446;6.698;2023-08-01T08:09:10;14.37;;;9.63;;
12271;SDS011;6198;51.446;6.698;2023-08-01T08:11:36;19.73;;;11.20;;
12271;SDS011;6198;51.446;6.698;2023-08-01T08:14:01;13.93;;;10.13;;
12271;SDS011;6198;51.446;6.698;2023-08-01T08:16:27;11.63;;;8.77;;
12271;SDS011;6198;51.446;6.698;2023-08-01T08:18:53;16.27;;;10.53;;
12271;SDS011;6198;51.446;6.698;2023-08-01T08:21:19;16.27;;;10.67;;
12271;SDS011;6198;51.446;6.698;2023-08-01T08:23:45;15.30;;;10.17;;
12271;SDS011;6198;51.446;6.698;2023-08-01T08:26:11;20.20;;;10.40;;
12271;SDS011;6198;51.446;6.698;2023-08-01T08:28:37;11.57;;;9.10;;
12271;SDS011;6198;51.446;6.698;2023-08-01T08:31:04;22.97;;;9.50;;
12271;SDS011;6198;51.446;6.698;2023-08-01T08:33:30;15.97;;;9.10;;
12271;SDS011;6198;51.446;6.698;2023-08-01T08:35:56;13.40;;;8.43;;
12271;SDS011;6198;51.446;6.698;2023-08-01T08:38:22;19.40;;;9.17;;
12271;SDS011;6198;51.446;6.698;2023-08-01T08:41:01;15.53;;;8.67;;
12271;SDS011;6198;51.446;6.698;2023-08-01T08:43:32;13.03;;;9.27;;
12271;SDS011;6198;51.446;6.698;2023-08-01T08:45:59;13.40;;;8.93;;
12271;SDS011;6198;51.446;6.698;2023-08-01T08:48:25;15.07;;;9.20;;
12271;SDS011;6198;51.446;6.698;2023-08-01T08:50:52;13.33;;;8.63;;
12271;SDS011;6198;51.446;6.698;2023-08-01T08:53:18;18.40;;;9.07;;
12271;SDS011;6198;51.446;6.698;2023-08-01T08:55:44;11.33;;;8.80;;
12271;SDS011;6198;51.446;6.698;2023-08-01T08:58:10;10.40;;;7.53;;
12271;SDS011;6198;51.446;6.698;2023-08-01T09:00:37;15.17;;;7.33;;
12271;SDS011;6198;51.446;6.698;2023-08-01T09:03:06;12.43;;;7.80;;
12271;SDS011;6198;51.446;6.698;2023-08-01T09:05:38;16.33;;;7.73;;
12271;SDS011;6198;51.446;6.698;2023-08-01T09:08:07;8.57;;;6.80;;
12271;SDS011;6198;51.446;6.698;2023-08-01T09:10:34;13.13;;;6.77;;
12271;SDS011;6198;51.446;6.698;2023-08-01T09:13:00;11.93;;;6.23;;
12271;SDS011;6198;51.446;6.698;2023-08-01T09:15:26;10.00;;;6.03;;
12271;SDS011;6198;51.446;6.698;2023-08-01T09:17:54;10.70;;;5.90;;
12271;SDS011;6198;51.446;6.698;2023-08-01T09:20:25;8.10;;;5.60;;
12271;SDS011;6198;51.446;6.698;2023-08-01T09:22:51;9.43;;;5.00;;
12271;SDS011;6198;51.446;6.698;2023-08-01T09:25:17;9.60;;;5.60;;
12271;SDS011;6198;51.446;6.698;2023-08-01T09:27:43;7.60;;;5.20;;
12271;SDS011;6198;51.446;6.698;2023-08-01T09:30:10;8.43;;;5.53;;
12271;SDS011;6198;51.446;6.698;2023-08-01T09:32:38;8.77;;;4.97;;
12271;SDS011;6198;51.446;6.698;2023-08-01T09:35:05;9.00;;;4.80;;
12271;SDS011;6198;51.446;6.698;2023-08-01T09:37:40;8.40;;;4.97;;
12271;SDS011;6198;51.446;6.698;2023-08-01T09:40:07;8.20;;;4.43;;
12271;SDS011;6198;51.446;6.698;2023-08-01T09:42:37;5.53;;;4.63;;
12271;SDS011;6198;51.446;6.698;2023-08-01T09:45:05;10.00;;;4.93;;
12271;SDS011;6198;51.446;6.698;2023-08-01T09:47:38;9.43;;;5.17;;
12271;SDS011;6198;51.446;6.698;2023-08-01T09:50:04;8.33;;;4.73;;
12271;SDS011;6198;51.446;6.698;2023-08-01T09:52:30;9.70;;;4.20;;
12271;SDS011;6198;51.446;6.698;2023-08-01T09:54:56;6.60;;;4.27;;
12271;SDS011;6198;51.446;6.698;2023-08-01T09:57:22;6.57;;;4.20;;
12271;SDS011;6198;51.446;6.698;2023-08-01T09:59:48;7.37;;;4.27;;
12271;SDS011;6198;51.446;6.698;2023-08-01T10:02:15;7.00;;;4.67;;
12271;SDS011;6198;51.446;6.698;2023-08-01T10:04:41;7.30;;;4.43;;
12271;SDS011;6198;51.446;6.698;2023-08-01T10:07:08;7.43;;;4.67;;
12271;SDS011;6198;51.446;6.698;2023-08-01T10:09:36;9.20;;;4.70;;
12271;SDS011;6198;51.446;6.698;2023-08-01T10:12:04;6.03;;;4.60;;
12271;SDS011;6198;51.446;6.698;2023-08-01T10:14:34;8.30;;;4.73;;
12271;SDS011;6198;51.446;6.698;2023-08-01T10:17:02;7.17;;;4.57;;
12271;SDS011;6198;51.446;6.698;2023-08-01T10:19:29;8.53;;;4.13;;
12271;SDS011;6198;51.446;6.698;2023-08-01T10:21:56;6.27;;;4.60;;
12271;SDS011;6198;51.446;6.698;2023-08-01T10:24:23;8.23;;;4.53;;
12271;SDS011;6198;51.446;6.698;2023-08-01T10:26:50;13.23;;;4.70;;
12271;SDS011;6198;51.446;6.698;2023-08-01T10:29:16;6.17;;;4.13;;
12271;SDS011;6198;51.446;6.698;2023-08-01T10:31:52;10.67;;;4.77;;
12271;SDS011;6198;51.446;6.698;2023-08-01T10:34:18;7.80;;;4.07;;
12271;SDS011;6198;51.446;6.698;2023-08-01T10:36:53;6.63;;;4.20;;
12271;SDS011;6198;51.446;6.698;2023-08-01T10:42:01;7.43;;;4.60;;
12271;SDS011;6198;51.446;6.698;2023-08-01T10:44:27;6.10;;;5.03;;
12271;SDS011;6198;51.446;6.698;2023-08-01T10:46:56;7.60;;;4.93;;
12271;SDS011;6198;51.446;6.698;2023-08-01T10:49:35;7.90;;;5.30;;
12271;SDS011;6198;51.446;6.698;2023-08-01T10:52:02;13.20;;;7.33;;
12271;SDS011;6198;51.446;6.698;2023-08-01T10:54:28;10.17;;;6.77;;
12271;SDS011;6198;51.446;6.698;2023-08-01T10:56:57;14.77;;;9.82;;
12271;SDS011;6198;51.446;6.698;2023-08-01T10:59:23;13.80;;;8.43;;
12271;SDS011;6198;51.446;6.698;2023-08-01T11:01:53;8.00;;;6.40;;
12271;SDS011;6198;51.446;6.698;2023-08-01T11:04:20;8.43;;;4.80;;
12271;SDS011;6198;51.446;6.698;2023-08-01T11:06:47;7.97;;;4.45;;
12271;SDS011;6198;51.446;6.698;2023-08-01T11:09:24;5.97;;;3.53;;
12271;SDS011;6198;51.446;6.698;2023-08-01T11:11:51;6.57;;;3.83;;
12271;SDS011;6198;51.446;6.698;2023-08-01T11:14:21;10.03;;;3.83;;
12271;SDS011;6198;51.446;6.698;2023-08-01T11:16:47;7.32;;;4.22;;
12271;SDS011;6198;51.446;6.698;2023-08-01T11:19:17;8.02;;;4.45;;
12271;SDS011;6198;51.446;6.698;2023-08-01T11:21:44;6.63;;;4.47;;
12271;SDS011;6198;51.446;6.698;2023-08-01T11:24:10;7.47;;;4.50;;
12271;SDS011;6198;51.446;6.698;2023-08-01T11:26:39;9.77;;;4.60;;
12271;SDS011;6198;51.446;6.698;2023-08-01T11:29:05;10.43;;;4.30;;
12271;SDS011;6198;51.446;6.698;2023-08-01T11:31:31;6.20;;;3.58;;
12271;SDS011;6198;51.446;6.698;2023-08-01T11:33:57;5.55;;;2.95;;
12271;SDS011;6198;51.446;6.698;2023-08-01T11:36:27;5.90;;;3.00;;
12271;SDS011;6198;51.446;6.698;2023-08-01T11:38:53;5.50;;;3.03;;
12271;SDS011;6198;51.446;6.698;2023-08-01T11:41:19;9.07;;;3.00;;
12271;SDS011;6198;51.446;6.698;2023-08-01T11:43:45;6.13;;;3.40;;
12271;SDS011;6198;51.446;6.698;2023-08-01T11:46:12;5.95;;;3.30;;
12271;SDS011;6198;51.446;6.698;2023-08-01T11:48:38;5.03;;;2.90;;
12271;SDS011;6198;51.446;6.698;2023-08-01T11:51:04;7.63;;;3.58;;
12271;SDS011;6198;51.446;6.698;2023-08-01T11:53:30;5.85;;;3.45;;
12271;SDS011;6198;51.446;6.698;2023-08-01T11:56:03;7.93;;;3.80;;
12271;SDS011;6198;51.446;6.698;2023-08-01T11:58:33;6.72;;;4.30;;
12271;SDS011;6198;51.446;6.698;2023-08-01T12:01:03;8.35;;;4.40;;
12271;SDS011;6198;51.446;6.698;2023-08-01T12:03:29;7.30;;;4.23;;
12271;SDS011;6198;51.446;6.698;2023-08-01T12:06:02;7.70;;;3.93;;
12271;SDS011;6198;51.446;6.698;2023-08-01T12:08:30;8.83;;;4.37;;
12271;SDS011;6198;51.446;6.698;2023-08-01T12:10:59;9.07;;;4.60;;
12271;SDS011;6198;51.446;6.698;2023-08-01T12:13:26;9.17;;;4.37;;
12271;SDS011;6198;51.446;6.698;2023-08-01T12:15:53;7.93;;;4.53;;
12271;SDS011;6198;51.446;6.698;2023-08-01T12:18:21;11.68;;;5.28;;
12271;SDS011;6198;51.446;6.698;2023-08-01T12:20:47;8.07;;;5.00;;
12271;SDS011;6198;51.446;6.698;2023-08-01T12:23:13;10.65;;;5.38;;
12271;SDS011;6198;51.446;6.698;2023-08-01T12:25:39;9.07;;;5.00;;
12271;SDS011;6198;51.446;6.698;2023-08-01T12:28:05;8.65;;;4.63;;
12271;SDS011;6198;51.446;6.698;2023-08-01T12:30:31;11.55;;;4.93;;
12271;SDS011;6198;51.446;6.698;2023-08-01T12:32:57;9.90;;;4.57;;
12271;SDS011;6198;51.446;6.698;2023-08-01T12:35:23;8.93;;;4.20;;
12271;SDS011;6198;51.446;6.698;2023-08-01T12:37:49;6.10;;;3.27;;
12271;SDS011;6198;51.446;6.698;2023-08-01T12:40:17;5.37;;;3.27;;
12271;SDS011;6198;51.446;6.698;2023-08-01T12:42:43;4.80;;;2.63;;
12271;SDS011;6198;51.446;6.698;2023-08-01T12:45:09;7.37;;;2.80;;
12271;SDS011;6198;51.446;6.698;2023-08-01T12:47:35;4.90;;;2.97;;
12271;SDS011;6198;51.446;6.698;2023-08-01T12:50:01;8.53;;;3.40;;
12271;SDS011;6198;51.446;6.698;2023-08-01T12:52:27;5.87;;;3.07;;
12271;SDS011;6198;51.446;6.698;2023-08-01T12:54:53;6.37;;;3.03;;
12271;SDS011;6198;51.446;6.698;2023-08-01T12:57:19;7.17;;;3.47;;
12271;SDS011;6198;51.446;6.698;2023-08-01T12:59:44;5.13;;;3.30;;
12271;SDS011;6198;51.446;6.698;2023-08-01T13:02:10;6.13;;;3.33;;
12271;SDS011;6198;51.446;6.698;2023-08-01T13:04:36;8.33;;;3.57;;
12271;SDS011;6198;51.446;6.698;2023-08-01T13:07:03;6.43;;;3.03;;
12271;SDS011;6198;51.446;6.698;2023-08-01T13:09:29;6.37;;;3.00;;
12271;SDS011;6198;51.446;6.698;2023-08-01T13:11:55;5.70;;;3.20;;
12271;SDS011;6198;51.446;6.698;2023-08-01T13:14:21;6.17;;;3.23;;
12271;SDS011;6198;51.446;6.698;2023-08-01T13:16:47;5.83;;;3.60;;
12271;SDS011;6198;51.446;6.698;2023-08-01T13:19:13;6.67;;;3.20;;
12271;SDS011;6198;51.446;6.698;2023-08-01T13:21:39;7.73;;;3.67;;
12271;SDS011;6198;51.446;6.698;2023-08-01T13:24:05;6.60;;;3.67;;
12271;SDS011;6198;51.446;6.698;2023-08-01T13:26:31;5.90;;;3.10;;
12271;SDS011;6198;51.446;6.698;2023-08-01T13:28:57;9.33;;;3.40;;
12271;SDS011;6198;51.446;6.698;2023-08-01T13:31:23;8.80;;;3.90;;
12271;SDS011;6198;51.446;6.698;2023-08-01T13:33:49;8.97;;;3.80;;
12271;SDS011;6198;51.446;6.698;2023-08-01T13:36:17;10.13;;;3.67;;
12271;SDS011;6198;51.446;6.698;2023-08-01T13:38:43;7.17;;;3.33;;
12271;SDS011;6198;51.446;6.698;2023-08-01T13:41:09;8.10;;;3.33;;
12271;SDS011;6198;51.446;6.698;2023-08-01T13:43:35;10.33;;;3.03;;
12271;SDS011;6198;51.446;6.698;2023-08-01T13:46:07;10.17;;;3.57;;
12271;SDS011;6198;51.446;6.698;2023-08-01T13:48:33;7.53;;;3.53;;
12271;SDS011;6198;51.446;6.698;2023-08-01T13:50:59;5.23;;;2.43;;
12271;SDS011;6198;51.446;6.698;2023-08-01T13:53:25;5.43;;;2.70;;
12271;SDS011;6198;51.446;6.698;2023-08-01T13:55:51;4.47;;;2.53;;
12271;SDS011;6198;51.446;6.698;2023-08-01T13:58:17;7.07;;;3.13;;
12271;SDS011;6198;51.446;6.698;2023-08-01T14:00:43;10.67;;;3.00;;
12271;SDS011;6198;51.446;6.698;2023-08-01T14:03:09;5.60;;;2.87;;
12271;SDS011;6198;51.446;6.698;2023-08-01T14:05:35;6.87;;;2.90;;
12271;SDS011;6198;51.446;6.698;2023-08-01T14:08:00;7.93;;;2.83;;
12271;SDS011;6198;51.446;6.698;2023-08-01T14:10:27;5.70;;;2.80;;
12271;SDS011;6198;51.446;6.698;2023-08-01T14:12:53;8.33;;;2.83;;
12271;SDS011;6198;51.446;6.698;2023-08-01T14:15:19;6.37;;;2.80;;
12271;SDS011;6198;51.446;6.698;2023-08-01T14:17:45;5.67;;;2.90;;
12271;SDS011;6198;51.446;6.698;2023-08-01T14:20:11;6.83;;;2.90;;
12271;SDS011;6198;51.446;6.698;2023-08-01T14:22:37;6.33;;;2.60;;
12271;SDS011;6198;51.446;6.698;2023-08-01T14:25:03;5.23;;;2.70;;
12271;SDS011;6198;51.446;6.698;2023-08-01T14:27:29;4.27;;;2.73;;
12271;SDS011;6198;51.446;6.698;2023-08-01T14:29:55;7.17;;;3.10;;
12271;SDS011;6198;51.446;6.698;2023-08-01T14:32:21;8.87;;;3.30;;
12271;SDS011;6198;51.446;6.698;2023-08-01T14:34:47;5.90;;;2.80;;
12271;SDS011;6198;51.446;6.698;2023-08-01T14:37:13;7.83;;;3.50;;
12271;SDS011;6198;51.446;6.698;2023-08-01T14:39:39;5.83;;;2.50;;
12271;SDS011;6198;51.446;6.698;2023-08-01T14:42:05;6.50;;;2.53;;
12271;SDS011;6198;51.446;6.698;2023-08-01T14:44:31;9.67;;;3.17;;
12271;SDS011;6198;51.446;6.698;2023-08-01T14:46:57;6.73;;;2.67;;